sensor_id;sensor_type;location;lat;lon;timestamp;P1;durP1;ratioP1;P2;durP2;ratioP2
15061;SDS011;7630;50.306;8.566;2023-04-03T00:03:50;4.47;;;3.40;;
15061;SDS011;7630;50.306;8.566;2023-04-03T00:07:52;7.13;;;3.27;;
15061;SDS011;7630;50.306;8.566;2023-04-03T00:11:53;4.70;;;3.27;;
15061;SDS011;7630;50.306;8.566;2023-04-03T00:15:54;3.83;;;3.50;;
15061;SDS011;7630;50.306;8.566;2023-04-03T00:19:55;7.20;;;4.20;;
15061;SDS011;7630;50.306;8.566;2023-04-03T00:23:56;4.63;;;3.13;;
15061;SDS011;7630;50.306;8.566;2023-04-03T00:27:57;4.27;;;3.40;;
15061;SDS011;7630;50.306;8.566;2023-04-03T00:31:58;6.10;;;3.00;;
15061;SDS011;7630;50.306;8.566;2023-04-03T00:36:04;3.30;;;3.00;;
15061;SDS011;7630;50.306;8.566;2023-04-03T00:40:07;3.77;;;3.47;;
15061;SDS011;7630;50.306;8.566;2023-04-03T00:44:22;3.63;;;3.10;;
15061;SDS011;7630;50.306;8.566;2023-04-03T00:52:32;3.97;;;3.53;;
15061;SDS011;7630;50.306;8.566;2023-04-03T00:56:34;3.90;;;3.53;;
15061;SDS011;7630;50.306;8.566;2023-04-03T01:00:37;4.03;;;3.63;;
15061;SDS011;7630;50.306;8.566;2023-04-03T01:04:41;3.27;;;3.03;;
15061;SDS011;7630;50.306;8.566;2023-04-03T01:08:43;4.00;;;3.70;;
15061;SDS011;7630;50.306;8.566;2023-04-03T01:12:48;5.57;;;3.30;;
15061;SDS011;7630;50.306;8.566;2023-04-03T01:16:53;6.30;;;3.67;;
15061;SDS011;7630;50.306;8.566;2023-04-03T01:25:09;7.53;;;2.67;;
15061;SDS011;7630;50.306;8.566;2023-04-03T01:29:10;3.93;;;3.17;;
15061;SDS011;7630;50.306;8.566;2023-04-03T01:33:12;3.30;;;2.77;;
15061;SDS011;7630;50.306;8.566;2023-04-03T01:37:13;3.47;;;3.20;;
15061;SDS011;7630;50.306;8.566;2023-04-03T01:41:14;4.73;;;3.07;;
15061;SDS011;7630;50.306;8.566;2023-04-03T01:45:16;5.93;;;3.57;;
15061;SDS011;7630;50.306;8.566;2023-04-03T01:49:17;4.77;;;3.23;;
15061;SDS011;7630;50.306;8.566;2023-04-03T01:53:18;3.80;;;2.83;;
15061;SDS011;7630;50.306;8.566;2023-04-03T01:57:19;4.53;;;3.17;;
15061;SDS011;7630;50.306;8.566;2023-04-03T02:01:20;11.17;;;2.83;;
15061;SDS011;7630;50.306;8.566;2023-04-03T02:05:22;8.57;;;5.83;;
15061;SDS011;7630;50.306;8.566;2023-04-03T02:09:23;5.90;;;3.50;;
15061;SDS011;7630;50.306;8.566;2023-04-03T02:13:24;5.40;;;3.37;;
15061;SDS011;7630;50.306;8.566;2023-04-03T02:17:25;3.53;;;2.30;;
15061;SDS011;7630;50.306;8.566;2023-04-03T02:21:26;3.67;;;3.10;;
15061;SDS011;7630;50.306;8.566;2023-04-03T02:25:29;3.30;;;2.83;;
15061;SDS011;7630;50.306;8.566;2023-04-03T02:29:31;8.33;;;2.40;;
15061;SDS011;7630;50.306;8.566;2023-04-03T02:33:33;6.83;;;3.00;;
15061;SDS011;7630;50.306;8.566;2023-04-03T02:37:36;8.97;;;3.40;;
15061;SDS011;7630;50.306;8.566;2023-04-03T02:41:38;6.67;;;3.10;;
15061;SDS011;7630;50.306;8.566;2023-04-03T02:45:39;4.90;;;2.63;;
15061;SDS011;7630;50.306;8.566;2023-04-03T02:49:40;5.87;;;2.80;;
15061;SDS011;7630;50.306;8.566;2023-04-03T02:53:41;5.13;;;3.23;;
15061;SDS011;7630;50.306;8.566;2023-04-03T02:57:42;6.40;;;3.00;;
15061;SDS011;7630;50.306;8.566;2023-04-03T03:01:43;4.17;;;3.03;;
15061;SDS011;7630;50.306;8.566;2023-04-03T03:05:44;5.70;;;2.70;;
15061;SDS011;7630;50.306;8.566;2023-04-03T03:09:46;2.90;;;2.53;;
15061;SDS011;7630;50.306;8.566;2023-04-03T03:13:47;9.33;;;4.23;;
15061;SDS011;7630;50.306;8.566;2023-04-03T03:17:48;3.43;;;2.60;;
15061;SDS011;7630;50.306;8.566;2023-04-03T03:21:49;5.00;;;3.33;;
15061;SDS011;7630;50.306;8.566;2023-04-03T03:25:59;6.20;;;4.20;;
15061;SDS011;7630;50.306;8.566;2023-04-03T03:29:58;6.47;;;2.93;;
15061;SDS011;7630;50.306;8.566;2023-04-03T03:33:59;5.07;;;3.33;;
15061;SDS011;7630;50.306;8.566;2023-04-03T03:38:00;3.57;;;2.47;;
15061;SDS011;7630;50.306;8.566;2023-04-03T03:42:02;6.13;;;2.83;;
15061;SDS011;7630;50.306;8.566;2023-04-03T03:46:03;5.00;;;2.97;;
15061;SDS011;7630;50.306;8.566;2023-04-03T03:50:04;4.73;;;3.77;;
15061;SDS011;7630;50.306;8.566;2023-04-03T03:54:06;3.83;;;2.77;;
15061;SDS011;7630;50.306;8.566;2023-04-03T03:58:08;6.07;;;3.40;;
15061;SDS011;7630;50.306;8.566;2023-04-03T04:02:10;9.33;;;2.83;;
15061;SDS011;7630;50.306;8.566;2023-04-03T04:06:12;2.43;;;2.13;;
15061;SDS011;7630;50.306;8.566;2023-04-03T04:10:13;6.17;;;3.10;;
15061;SDS011;7630;50.306;8.566;2023-04-03T04:14:14;4.27;;;3.00;;
15061;SDS011;7630;50.306;8.566;2023-04-03T04:18:15;3.70;;;3.10;;
15061;SDS011;7630;50.306;8.566;2023-04-03T04:22:18;6.10;;;3.30;;
15061;SDS011;7630;50.306;8.566;2023-04-03T04:26:19;8.87;;;3.63;;
15061;SDS011;7630;50.306;8.566;2023-04-03T04:30:21;7.23;;;2.83;;
15061;SDS011;7630;50.306;8.566;2023-04-03T04:34:22;4.40;;;2.80;;
15061;SDS011;7630;50.306;8.566;2023-04-03T04:38:23;7.77;;;3.43;;
15061;SDS011;7630;50.306;8.566;2023-04-03T04:42:24;9.47;;;3.77;;
15061;SDS011;7630;50.306;8.566;2023-04-03T04:46:26;4.93;;;3.03;;
15061;SDS011;7630;50.306;8.566;2023-04-03T04:50:27;8.53;;;2.77;;
15061;SDS011;7630;50.306;8.566;2023-04-03T04:54:28;3.23;;;2.70;;
15061;SDS011;7630;50.306;8.566;2023-04-03T04:58:30;5.53;;;2.90;;
15061;SDS011;7630;50.306;8.566;2023-04-03T05:02:31;9.90;;;3.40;;
15061;SDS011;7630;50.306;8.566;2023-04-03T05:06:32;4.63;;;3.37;;
15061;SDS011;7630;50.306;8.566;2023-04-03T05:10:33;5.40;;;2.40;;
15061;SDS011;7630;50.306;8.566;2023-04-03T05:14:35;4.50;;;2.77;;
15061;SDS011;7630;50.306;8.566;2023-04-03T05:18:36;5.47;;;2.80;;
15061;SDS011;7630;50.306;8.566;2023-04-03T05:22:37;7.20;;;4.40;;
15061;SDS011;7630;50.306;8.566;2023-04-03T05:26:39;2.30;;;2.10;;
15061;SDS011;7630;50.306;8.566;2023-04-03T05:30:40;3.03;;;2.83;;
15061;SDS011;7630;50.306;8.566;2023-04-03T05:34:41;4.87;;;3.17;;
15061;SDS011;7630;50.306;8.566;2023-04-03T05:38:42;3.70;;;2.93;;
15061;SDS011;7630;50.306;8.566;2023-04-03T05:42:43;8.63;;;3.63;;
15061;SDS011;7630;50.306;8.566;2023-04-03T05:46:45;3.70;;;3.40;;
15061;SDS011;7630;50.306;8.566;2023-04-03T05:54:56;8.13;;;3.50;;
15061;SDS011;7630;50.306;8.566;2023-04-03T05:58:57;4.77;;;3.70;;
15061;SDS011;7630;50.306;8.566;2023-04-03T06:02:58;12.37;;;4.27;;
15061;SDS011;7630;50.306;8.566;2023-04-03T06:07:00;4.77;;;2.80;;
15061;SDS011;7630;50.306;8.566;2023-04-03T06:11:01;5.63;;;4.53;;
15061;SDS011;7630;50.306;8.566;2023-04-03T06:15:03;10.53;;;4.60;;
15061;SDS011;7630;50.306;8.566;2023-04-03T06:19:05;5.50;;;3.40;;
15061;SDS011;7630;50.306;8.566;2023-04-03T06:23:08;5.53;;;5.03;;
15061;SDS011;7630;50.306;8.566;2023-04-03T06:27:09;7.07;;;4.83;;
15061;SDS011;7630;50.306;8.566;2023-04-03T06:31:12;4.90;;;3.50;;
15061;SDS011;7630;50.306;8.566;2023-04-03T06:35:13;5.93;;;4.13;;
15061;SDS011;7630;50.306;8.566;2023-04-03T06:39:15;5.37;;;3.37;;
15061;SDS011;7630;50.306;8.566;2023-04-03T06:43:18;8.17;;;4.33;;
15061;SDS011;7630;50.306;8.566;2023-04-03T06:47:20;5.97;;;4.73;;
15061;SDS011;7630;50.306;8.566;2023-04-03T06:51:22;7.10;;;5.20;;
15061;SDS011;7630;50.306;8.566;2023-04-03T06:55:25;4.30;;;3.90;;
15061;SDS011;7630;50.306;8.566;2023-04-03T06:59:26;9.83;;;4.87;;
15061;SDS011;7630;50.306;8.566;2023-04-03T07:03:28;4.77;;;3.63;;
15061;SDS011;7630;50.306;8.566;2023-04-03T07:07:29;6.07;;;4.90;;
15061;SDS011;7630;50.306;8.566;2023-04-03T07:11:30;9.50;;;5.43;;
15061;SDS011;7630;50.306;8.566;2023-04-03T07:15:31;8.53;;;5.97;;
15061;SDS011;7630;50.306;8.566;2023-04-03T07:19:32;9.10;;;7.10;;
15061;SDS011;7630;50.306;8.566;2023-04-03T07:23:33;8.43;;;4.97;;
15061;SDS011;7630;50.306;8.566;2023-04-03T07:27:34;4.80;;;3.53;;
15061;SDS011;7630;50.306;8.566;2023-04-03T07:31:35;7.30;;;4.37;;
15061;SDS011;7630;50.306;8.566;2023-04-03T07:35:37;6.53;;;6.03;;
15061;SDS011;7630;50.306;8.566;2023-04-03T07:39:38;7.43;;;5.47;;
15061;SDS011;7630;50.306;8.566;2023-04-03T07:43:40;4.80;;;4.40;;
15061;SDS011;7630;50.306;8.566;2023-04-03T07:47:42;7.70;;;4.67;;
15061;SDS011;7630;50.306;8.566;2023-04-03T07:51:44;6.47;;;4.97;;
15061;SDS011;7630;50.306;8.566;2023-04-03T07:55:46;5.13;;;4.73;;
15061;SDS011;7630;50.306;8.566;2023-04-03T07:59:48;4.97;;;4.63;;
15061;SDS011;7630;50.306;8.566;2023-04-03T08:03:49;8.13;;;4.77;;
15061;SDS011;7630;50.306;8.566;2023-04-03T08:07:51;4.60;;;4.20;;
15061;SDS011;7630;50.306;8.566;2023-04-03T08:11:52;5.70;;;4.53;;
15061;SDS011;7630;50.306;8.566;2023-04-03T08:15:54;4.77;;;4.37;;
15061;SDS011;7630;50.306;8.566;2023-04-03T08:19:57;5.57;;;4.33;;
15061;SDS011;7630;50.306;8.566;2023-04-03T08:23:59;13.07;;;4.90;;
15061;SDS011;7630;50.306;8.566;2023-04-03T08:28:00;5.87;;;4.33;;
15061;SDS011;7630;50.306;8.566;2023-04-03T08:32:02;5.10;;;4.10;;
15061;SDS011;7630;50.306;8.566;2023-04-03T08:36:14;4.33;;;3.93;;
15061;SDS011;7630;50.306;8.566;2023-04-03T08:40:24;4.63;;;4.20;;
15061;SDS011;7630;50.306;8.566;2023-04-03T08:44:26;4.13;;;3.80;;
15061;SDS011;7630;50.306;8.566;2023-04-03T08:48:33;3.23;;;2.60;;
15061;SDS011;7630;50.306;8.566;2023-04-03T08:52:52;5.67;;;3.83;;
15061;SDS011;7630;50.306;8.566;2023-04-03T08:56:59;4.27;;;3.87;;
15061;SDS011;7630;50.306;8.566;2023-04-03T09:01:24;5.50;;;5.00;;
15061;SDS011;7630;50.306;8.566;2023-04-03T09:09:49;10.63;;;5.47;;
15061;SDS011;7630;50.306;8.566;2023-04-03T09:18:21;7.47;;;4.93;;
15061;SDS011;7630;50.306;8.566;2023-04-03T09:22:27;4.43;;;4.13;;
15061;SDS011;7630;50.306;8.566;2023-04-03T09:26:31;4.47;;;4.07;;
15061;SDS011;7630;50.306;8.566;2023-04-03T09:30:51;4.13;;;3.73;;
15061;SDS011;7630;50.306;8.566;2023-04-03T09:34:52;5.30;;;4.77;;
15061;SDS011;7630;50.306;8.566;2023-04-03T09:39:03;5.23;;;4.47;;
15061;SDS011;7630;50.306;8.566;2023-04-03T09:43:23;5.10;;;4.60;;
15061;SDS011;7630;50.306;8.566;2023-04-03T09:47:29;7.27;;;3.90;;
15061;SDS011;7630;50.306;8.566;2023-04-03T09:51:33;8.53;;;4.80;;
15061;SDS011;7630;50.306;8.566;2023-04-03T09:55:41;5.63;;;4.10;;
15061;SDS011;7630;50.306;8.566;2023-04-03T09:59:47;7.23;;;4.87;;
15061;SDS011;7630;50.306;8.566;2023-04-03T10:04:02;4.03;;;3.73;;
15061;SDS011;7630;50.306;8.566;2023-04-03T10:12:18;4.70;;;3.60;;
15061;SDS011;7630;50.306;8.566;2023-04-03T10:16:23;7.90;;;4.50;;
15061;SDS011;7630;50.306;8.566;2023-04-03T10:20:36;6.57;;;5.67;;
15061;SDS011;7630;50.306;8.566;2023-04-03T10:42:23;5.10;;;3.20;;
15061;SDS011;7630;50.306;8.566;2023-04-03T10:50:45;4.63;;;4.17;;
15061;SDS011;7630;50.306;8.566;2023-04-03T10:55:01;5.47;;;3.90;;
15061;SDS011;7630;50.306;8.566;2023-04-03T10:59:13;3.57;;;3.27;;
15061;SDS011;7630;50.306;8.566;2023-04-03T11:03:17;6.07;;;4.60;;
15061;SDS011;7630;50.306;8.566;2023-04-03T11:07:28;4.40;;;4.00;;
15061;SDS011;7630;50.306;8.566;2023-04-03T11:11:36;5.40;;;4.10;;
15061;SDS011;7630;50.306;8.566;2023-04-03T11:15:40;3.33;;;3.13;;
15061;SDS011;7630;50.306;8.566;2023-04-03T11:19:48;5.90;;;3.93;;
15061;SDS011;7630;50.306;8.566;2023-04-03T11:24:12;4.33;;;4.00;;
15061;SDS011;7630;50.306;8.566;2023-04-03T11:28:27;3.43;;;3.13;;
15061;SDS011;7630;50.306;8.566;2023-04-03T11:36:46;4.93;;;3.13;;
15061;SDS011;7630;50.306;8.566;2023-04-03T11:40:50;10.53;;;3.50;;
15061;SDS011;7630;50.306;8.566;2023-04-03T11:45:15;3.57;;;3.27;;
15061;SDS011;7630;50.306;8.566;2023-04-03T11:49:00;5.17;;;3.97;;
15061;SDS011;7630;50.306;8.566;2023-04-03T11:53:25;3.97;;;3.57;;
15061;SDS011;7630;50.306;8.566;2023-04-03T12:10:17;3.00;;;2.40;;
15061;SDS011;7630;50.306;8.566;2023-04-03T12:14:22;3.33;;;3.03;;
15061;SDS011;7630;50.306;8.566;2023-04-03T12:19:24;4.07;;;3.00;;
15061;SDS011;7630;50.306;8.566;2023-04-03T12:22:34;2.97;;;2.70;;
15061;SDS011;7630;50.306;8.566;2023-04-03T12:30:48;2.40;;;2.20;;
15061;SDS011;7630;50.306;8.566;2023-04-03T12:55:43;2.53;;;2.33;;
15061;SDS011;7630;50.306;8.566;2023-04-03T12:59:45;4.57;;;2.27;;
15061;SDS011;7630;50.306;8.566;2023-04-03T13:03:48;4.63;;;2.67;;
15061;SDS011;7630;50.306;8.566;2023-04-03T13:07:58;5.30;;;4.00;;
15061;SDS011;7630;50.306;8.566;2023-04-03T13:12:12;6.57;;;3.23;;
15061;SDS011;7630;50.306;8.566;2023-04-03T13:16:15;2.10;;;2.00;;
15061;SDS011;7630;50.306;8.566;2023-04-03T13:20:20;5.27;;;2.33;;
15061;SDS011;7630;50.306;8.566;2023-04-03T13:24:23;3.00;;;2.20;;
15061;SDS011;7630;50.306;8.566;2023-04-03T13:28:25;3.23;;;1.90;;
15061;SDS011;7630;50.306;8.566;2023-04-03T13:32:27;2.70;;;2.13;;
15061;SDS011;7630;50.306;8.566;2023-04-03T13:36:31;5.50;;;2.57;;
15061;SDS011;7630;50.306;8.566;2023-04-03T13:40:46;3.87;;;2.77;;
15061;SDS011;7630;50.306;8.566;2023-04-03T13:44:41;1.53;;;1.43;;
15061;SDS011;7630;50.306;8.566;2023-04-03T13:48:47;3.63;;;1.80;;
15061;SDS011;7630;50.306;8.566;2023-04-03T13:52:53;4.67;;;3.10;;
15061;SDS011;7630;50.306;8.566;2023-04-03T13:57:01;2.53;;;2.20;;
15061;SDS011;7630;50.306;8.566;2023-04-03T14:01:11;3.40;;;1.87;;
15061;SDS011;7630;50.306;8.566;2023-04-03T14:05:14;2.37;;;2.10;;
15061;SDS011;7630;50.306;8.566;2023-04-03T14:09:17;2.67;;;1.93;;
15061;SDS011;7630;50.306;8.566;2023-04-03T14:13:19;2.33;;;1.80;;
15061;SDS011;7630;50.306;8.566;2023-04-03T14:17:23;2.57;;;2.20;;
15061;SDS011;7630;50.306;8.566;2023-04-03T14:21:26;1.57;;;1.47;;
15061;SDS011;7630;50.306;8.566;2023-04-03T14:25:27;1.57;;;1.50;;
15061;SDS011;7630;50.306;8.566;2023-04-03T14:29:28;3.03;;;1.60;;
15061;SDS011;7630;50.306;8.566;2023-04-03T14:33:29;4.63;;;1.83;;
15061;SDS011;7630;50.306;8.566;2023-04-03T14:37:32;2.90;;;1.57;;
15061;SDS011;7630;50.306;8.566;2023-04-03T14:41:34;5.00;;;3.17;;
15061;SDS011;7630;50.306;8.566;2023-04-03T14:45:35;2.90;;;2.30;;
15061;SDS011;7630;50.306;8.566;2023-04-03T14:49:37;1.83;;;1.67;;
15061;SDS011;7630;50.306;8.566;2023-04-03T14:53:38;4.20;;;1.50;;
15061;SDS011;7630;50.306;8.566;2023-04-03T14:57:39;2.77;;;1.67;;
15061;SDS011;7630;50.306;8.566;2023-04-03T15:01:41;1.67;;;1.57;;
15061;SDS011;7630;50.306;8.566;2023-04-03T15:05:43;1.70;;;1.60;;
15061;SDS011;7630;50.306;8.566;2023-04-03T15:09:45;3.37;;;1.70;;
15061;SDS011;7630;50.306;8.566;2023-04-03T15:13:46;4.13;;;1.83;;
15061;SDS011;7630;50.306;8.566;2023-04-03T15:17:50;4.83;;;2.90;;
15061;SDS011;7630;50.306;8.566;2023-04-03T15:21:54;4.93;;;2.03;;
15061;SDS011;7630;50.306;8.566;2023-04-03T15:25:55;2.03;;;1.87;;
15061;SDS011;7630;50.306;8.566;2023-04-03T15:29:57;2.43;;;1.80;;
15061;SDS011;7630;50.306;8.566;2023-04-03T15:33:59;3.77;;;1.70;;
15061;SDS011;7630;50.306;8.566;2023-04-03T15:38:00;1.67;;;1.57;;
15061;SDS011;7630;50.306;8.566;2023-04-03T15:42:01;2.30;;;1.30;;
15061;SDS011;7630;50.306;8.566;2023-04-03T15:46:05;4.50;;;1.97;;
15061;SDS011;7630;50.306;8.566;2023-04-03T15:50:06;3.90;;;2.27;;
15061;SDS011;7630;50.306;8.566;2023-04-03T15:54:08;3.57;;;1.97;;
15061;SDS011;7630;50.306;8.566;2023-04-03T15:58:10;4.07;;;2.00;;
15061;SDS011;7630;50.306;8.566;2023-04-03T16:02:12;1.73;;;1.63;;
15061;SDS011;7630;50.306;8.566;2023-04-03T16:06:14;3.30;;;2.03;;
15061;SDS011;7630;50.306;8.566;2023-04-03T16:10:16;4.40;;;1.87;;
15061;SDS011;7630;50.306;8.566;2023-04-03T16:14:18;5.60;;;2.03;;
15061;SDS011;7630;50.306;8.566;2023-04-03T16:18:19;2.80;;;1.60;;
15061;SDS011;7630;50.306;8.566;2023-04-03T16:22:21;2.60;;;2.10;;
15061;SDS011;7630;50.306;8.566;2023-04-03T16:26:25;3.23;;;1.97;;
15061;SDS011;7630;50.306;8.566;2023-04-03T16:30:27;2.13;;;1.90;;
15061;SDS011;7630;50.306;8.566;2023-04-03T16:34:28;3.50;;;2.37;;
15061;SDS011;7630;50.306;8.566;2023-04-03T16:38:31;4.17;;;2.73;;
15061;SDS011;7630;50.306;8.566;2023-04-03T16:42:32;6.77;;;2.57;;
15061;SDS011;7630;50.306;8.566;2023-04-03T16:46:35;2.20;;;1.53;;
15061;SDS011;7630;50.306;8.566;2023-04-03T16:50:36;6.50;;;2.07;;
15061;SDS011;7630;50.306;8.566;2023-04-03T16:54:37;2.77;;;2.10;;
15061;SDS011;7630;50.306;8.566;2023-04-03T16:58:39;2.50;;;2.30;;
15061;SDS011;7630;50.306;8.566;2023-04-03T17:02:40;2.77;;;2.10;;
15061;SDS011;7630;50.306;8.566;2023-04-03T17:06:41;4.53;;;2.50;;
15061;SDS011;7630;50.306;8.566;2023-04-03T17:10:42;3.60;;;2.27;;
15061;SDS011;7630;50.306;8.566;2023-04-03T17:14:43;5.57;;;2.23;;
15061;SDS011;7630;50.306;8.566;2023-04-03T17:18:44;3.43;;;2.13;;
15061;SDS011;7630;50.306;8.566;2023-04-03T17:22:46;5.43;;;2.33;;
15061;SDS011;7630;50.306;8.566;2023-04-03T17:26:47;1.50;;;1.40;;
15061;SDS011;7630;50.306;8.566;2023-04-03T17:30:48;5.77;;;2.10;;
15061;SDS011;7630;50.306;8.566;2023-04-03T17:34:49;3.30;;;2.27;;
15061;SDS011;7630;50.306;8.566;2023-04-03T17:38:51;2.80;;;1.90;;
15061;SDS011;7630;50.306;8.566;2023-04-03T17:42:52;5.73;;;2.90;;
15061;SDS011;7630;50.306;8.566;2023-04-03T17:46:53;4.20;;;2.30;;
15061;SDS011;7630;50.306;8.566;2023-04-03T17:50:54;11.50;;;2.67;;
15061;SDS011;7630;50.306;8.566;2023-04-03T17:54:55;2.50;;;2.03;;
15061;SDS011;7630;50.306;8.566;2023-04-03T17:58:57;3.40;;;2.07;;
15061;SDS011;7630;50.306;8.566;2023-04-03T18:02:58;3.87;;;2.23;;
15061;SDS011;7630;50.306;8.566;2023-04-03T18:06:59;6.10;;;2.50;;
15061;SDS011;7630;50.306;8.566;2023-04-03T18:11:02;6.20;;;2.07;;
15061;SDS011;7630;50.306;8.566;2023-04-03T18:15:04;3.07;;;2.60;;
15061;SDS011;7630;50.306;8.566;2023-04-03T18:19:06;6.80;;;2.10;;
15061;SDS011;7630;50.306;8.566;2023-04-03T18:23:11;3.20;;;2.20;;
15061;SDS011;7630;50.306;8.566;2023-04-03T18:27:12;5.60;;;2.93;;
15061;SDS011;7630;50.306;8.566;2023-04-03T18:31:15;2.40;;;2.17;;
15061;SDS011;7630;50.306;8.566;2023-04-03T18:35:18;3.63;;;2.87;;
15061;SDS011;7630;50.306;8.566;2023-04-03T18:39:19;3.53;;;2.30;;
15061;SDS011;7630;50.306;8.566;2023-04-03T18:43:21;5.10;;;2.80;;
15061;SDS011;7630;50.306;8.566;2023-04-03T18:47:25;2.20;;;2.00;;
15061;SDS011;7630;50.306;8.566;2023-04-03T18:51:28;3.00;;;2.80;;
15061;SDS011;7630;50.306;8.566;2023-04-03T18:55:29;4.00;;;3.50;;
15061;SDS011;7630;50.306;8.566;2023-04-03T18:59:31;8.87;;;5.63;;
15061;SDS011;7630;50.306;8.566;2023-04-03T19:03:32;5.93;;;4.80;;
15061;SDS011;7630;50.306;8.566;2023-04-03T19:07:35;7.40;;;3.93;;
15061;SDS011;7630;50.306;8.566;2023-04-03T19:11:39;2.90;;;2.70;;
15061;SDS011;7630;50.306;8.566;2023-04-03T19:15:40;2.70;;;2.50;;
15061;SDS011;7630;50.306;8.566;2023-04-03T19:19:41;3.73;;;2.57;;
15061;SDS011;7630;50.306;8.566;2023-04-03T19:23:43;5.20;;;3.20;;
15061;SDS011;7630;50.306;8.566;2023-04-03T19:27:44;3.80;;;2.90;;
15061;SDS011;7630;50.306;8.566;2023-04-03T19:31:45;3.13;;;2.80;;
15061;SDS011;7630;50.306;8.566;2023-04-03T19:35:47;3.17;;;2.87;;
15061;SDS011;7630;50.306;8.566;2023-04-03T19:39:48;5.57;;;3.30;;
15061;SDS011;7630;50.306;8.566;2023-04-03T19:43:50;5.07;;;2.47;;
15061;SDS011;7630;50.306;8.566;2023-04-03T19:47:53;3.13;;;2.70;;
15061;SDS011;7630;50.306;8.566;2023-04-03T19:51:54;5.03;;;2.75;;
15061;SDS011;7630;50.306;8.566;2023-04-03T19:55:56;3.30;;;2.77;;
15061;SDS011;7630;50.306;8.566;2023-04-03T19:59:57;2.73;;;2.53;;
15061;SDS011;7630;50.306;8.566;2023-04-03T20:03:59;4.53;;;3.47;;
15061;SDS011;7630;50.306;8.566;2023-04-03T20:08:00;4.57;;;2.80;;
15061;SDS011;7630;50.306;8.566;2023-04-03T20:12:01;6.47;;;3.27;;
15061;SDS011;7630;50.306;8.566;2023-04-03T20:16:04;4.30;;;2.50;;
15061;SDS011;7630;50.306;8.566;2023-04-03T20:20:06;3.80;;;2.37;;
15061;SDS011;7630;50.306;8.566;2023-04-03T20:24:09;2.43;;;2.23;;
15061;SDS011;7630;50.306;8.566;2023-04-03T20:28:14;2.77;;;2.57;;
15061;SDS011;7630;50.306;8.566;2023-04-03T20:32:16;4.73;;;2.50;;
15061;SDS011;7630;50.306;8.566;2023-04-03T20:36:18;3.43;;;2.57;;
15061;SDS011;7630;50.306;8.566;2023-04-03T20:40:20;2.80;;;2.47;;
15061;SDS011;7630;50.306;8.566;2023-04-03T20:44:21;4.33;;;2.40;;
15061;SDS011;7630;50.306;8.566;2023-04-03T20:48:23;3.60;;;3.00;;
15061;SDS011;7630;50.306;8.566;2023-04-03T20:52:24;6.17;;;2.73;;
15061;SDS011;7630;50.306;8.566;2023-04-03T20:56:28;3.93;;;3.37;;
15061;SDS011;7630;50.306;8.566;2023-04-03T21:00:36;3.10;;;2.80;;
15061;SDS011;7630;50.306;8.566;2023-04-03T21:04:43;3.97;;;2.80;;
15061;SDS011;7630;50.306;8.566;2023-04-03T21:22:11;4.47;;;3.17;;
15061;SDS011;7630;50.306;8.566;2023-04-03T21:26:13;14.70;;;9.77;;
15061;SDS011;7630;50.306;8.566;2023-04-03T21:30:15;6.80;;;6.10;;
15061;SDS011;7630;50.306;8.566;2023-04-03T21:34:16;8.13;;;4.43;;
15061;SDS011;7630;50.306;8.566;2023-04-03T21:38:19;3.80;;;3.43;;
15061;SDS011;7630;50.306;8.566;2023-04-03T21:42:20;3.60;;;3.03;;
15061;SDS011;7630;50.306;8.566;2023-04-03T21:46:22;3.57;;;2.60;;
15061;SDS011;7630;50.306;8.566;2023-04-03T21:50:24;2.90;;;2.60;;
15061;SDS011;7630;50.306;8.566;2023-04-03T21:54:25;3.73;;;2.80;;
15061;SDS011;7630;50.306;8.566;2023-04-03T21:58:28;6.77;;;3.70;;
15061;SDS011;7630;50.306;8.566;2023-04-03T22:02:32;3.53;;;3.13;;
15061;SDS011;7630;50.306;8.566;2023-04-03T22:06:35;5.00;;;4.50;;
15061;SDS011;7630;50.306;8.566;2023-04-03T22:10:37;5.90;;;3.70;;
15061;SDS011;7630;50.306;8.566;2023-04-03T22:14:40;5.37;;;3.40;;
15061;SDS011;7630;50.306;8.566;2023-04-03T22:18:42;5.33;;;2.93;;
15061;SDS011;7630;50.306;8.566;2023-04-03T22:22:43;5.83;;;3.00;;
15061;SDS011;7630;50.306;8.566;2023-04-03T22:26:44;6.77;;;2.67;;
15061;SDS011;7630;50.306;8.566;2023-04-03T22:30:46;2.73;;;2.53;;
15061;SDS011;7630;50.306;8.566;2023-04-03T22:34:47;2.90;;;2.57;;
15061;SDS011;7630;50.306;8.566;2023-04-03T22:38:48;6.67;;;3.23;;
15061;SDS011;7630;50.306;8.566;2023-04-03T22:42:49;5.93;;;3.10;;
15061;SDS011;7630;50.306;8.566;2023-04-03T22:46:50;3.13;;;2.80;;
15061;SDS011;7630;50.306;8.566;2023-04-03T22:50:51;3.00;;;2.70;;
15061;SDS011;7630;50.306;8.566;2023-04-03T22:54:53;2.33;;;2.23;;
15061;SDS011;7630;50.306;8.566;2023-04-03T22:58:54;2.80;;;2.40;;
15061;SDS011;7630;50.306;8.566;2023-04-03T23:03:00;3.37;;;2.43;;
15061;SDS011;7630;50.306;8.566;2023-04-03T23:07:00;5.23;;;4.17;;
15061;SDS011;7630;50.306;8.566;2023-04-03T23:11:02;3.97;;;2.40;;
15061;SDS011;7630;50.306;8.566;2023-04-03T23:15:03;3.73;;;2.43;;
15061;SDS011;7630;50.306;8.566;2023-04-03T23:19:05;3.80;;;2.73;;
15061;SDS011;7630;50.306;8.566;2023-04-03T23:23:06;2.57;;;2.07;;
15061;SDS011;7630;50.306;8.566;2023-04-03T23:27:08;3.00;;;2.27;;
15061;SDS011;7630;50.306;8.566;2023-04-03T23:31:09;3.77;;;2.77;;
15061;SDS011;7630;50.306;8.566;2023-04-03T23:35:10;3.77;;;2.87;;
15061;SDS011;7630;50.306;8.566;2023-04-03T23:39:11;2.80;;;2.60;;
15061;SDS011;7630;50.306;8.566;2023-04-03T23:43:12;3.27;;;2.97;;
15061;SDS011;7630;50.306;8.566;2023-04-03T23:47:13;4.63;;;2.80;;
15061;SDS011;7630;50.306;8.566;2023-04-03T23:51:14;3.50;;;3.20;;
15061;SDS011;7630;50.306;8.566;2023-04-03T23:55:15;3.57;;;3.27;;
15061;SDS011;7630;50.306;8.566;2023-04-03T23:59:16;2.90;;;2.60;;
